createdAt,value
2022-08-26T00:01:56.800Z,16.10
2022-08-26T00:04:26.151Z,16.00
2022-08-26T00:06:55.869Z,16.00
2022-08-26T00:09:26.196Z,16.00
2022-08-26T00:11:54.876Z,15.90
2022-08-26T00:14:28.297Z,15.90
2022-08-26T00:16:59.778Z,15.90
2022-08-26T00:19:28.255Z,15.80
2022-08-26T00:21:56.292Z,15.70
2022-08-26T00:24:26.233Z,15.70
2022-08-26T00:26:54.098Z,15.70
2022-08-26T00:29:22.613Z,15.70
2022-08-26T00:31:51.117Z,15.60
2022-08-26T00:34:19.244Z,15.50
2022-08-26T00:36:49.332Z,15.60
2022-08-26T00:39:20.963Z,15.50
2022-08-26T00:41:50.498Z,15.50
2022-08-26T00:44:18.419Z,15.50
2022-08-26T00:46:50.188Z,15.50
2022-08-26T00:49:25.784Z,15.50
2022-08-26T00:51:56.391Z,15.50
2022-08-26T00:54:28.198Z,15.60
2022-08-26T00:57:02.009Z,15.50
2022-08-26T00:59:33.103Z,15.50
2022-08-26T01:02:02.879Z,15.50
2022-08-26T01:04:34.494Z,15.60
2022-08-26T01:07:03.616Z,15.50
2022-08-26T01:09:32.604Z,15.50
2022-08-26T01:12:04.037Z,15.50
2022-08-26T01:14:36.705Z,15.50
2022-08-26T01:17:07.370Z,15.40
2022-08-26T01:19:43.056Z,15.40
2022-08-26T01:22:17.551Z,15.40
2022-08-26T01:24:48.160Z,15.30
2022-08-26T01:27:20.655Z,15.30
2022-08-26T01:29:51.361Z,15.20
2022-08-26T01:32:24.707Z,15.20
2022-08-26T01:34:54.181Z,15.20
2022-08-26T01:37:26.920Z,15.10
2022-08-26T01:39:57.886Z,15.10
2022-08-26T01:42:28.525Z,15.10
2022-08-26T01:45:04.492Z,15.10
2022-08-26T01:47:34.653Z,15.10
2022-08-26T01:50:08.487Z,15.10
2022-08-26T01:52:39.476Z,15.10
2022-08-26T01:55:10.388Z,15.10
2022-08-26T01:57:39.326Z,15.00
2022-08-26T02:00:13.158Z,15.00
2022-08-26T02:02:47.180Z,15.00
2022-08-26T02:05:22.471Z,14.90
2022-08-26T02:07:50.927Z,15.00
2022-08-26T02:10:20.489Z,15.00
2022-08-26T02:12:48.837Z,14.90
2022-08-26T02:15:17.253Z,14.90
2022-08-26T02:17:47.308Z,14.90
2022-08-26T02:20:20.200Z,14.90
2022-08-26T02:22:48.971Z,14.80
2022-08-26T02:25:24.937Z,14.80
2022-08-26T02:27:54.588Z,14.80
2022-08-26T02:30:27.075Z,14.80
2022-08-26T02:32:56.649Z,14.70
2022-08-26T02:35:25.340Z,14.70
2022-08-26T02:37:54.042Z,14.70
2022-08-26T02:40:26.614Z,14.60
2022-08-26T02:42:55.962Z,14.60
2022-08-26T02:45:26.225Z,14.60
2022-08-26T02:47:55.713Z,14.60
2022-08-26T02:50:25.673Z,14.50
2022-08-26T02:52:54.068Z,14.50
2022-08-26T02:55:24.732Z,14.50
2022-08-26T02:57:53.104Z,14.40
2022-08-26T03:00:21.403Z,14.40
2022-08-26T03:02:50.212Z,14.40
2022-08-26T03:05:19.732Z,14.30
2022-08-26T03:07:48.375Z,14.30
2022-08-26T03:10:17.869Z,14.30
2022-08-26T03:12:48.167Z,14.30
2022-08-26T03:15:18.379Z,14.30
2022-08-26T03:17:47.916Z,14.30
2022-08-26T03:20:17.539Z,14.30
2022-08-26T03:22:46.522Z,14.20
2022-08-26T03:25:16.958Z,14.30
2022-08-26T03:27:45.248Z,14.30
2022-08-26T03:30:33.595Z,14.30
2022-08-26T03:33:02.753Z,14.30
2022-08-26T03:35:31.872Z,14.20
2022-08-26T03:38:00.561Z,14.20
2022-08-26T03:40:30.591Z,14.20
2022-08-26T03:42:59.026Z,14.30
2022-08-26T03:45:29.536Z,14.20
2022-08-26T03:47:57.867Z,14.20
2022-08-26T03:50:27.228Z,14.20
2022-08-26T03:52:56.468Z,14.20
2022-08-26T03:55:27.288Z,14.20
2022-08-26T03:57:55.985Z,14.20
2022-08-26T04:00:24.237Z,14.30
2022-08-26T04:02:54.050Z,14.20
2022-08-26T04:05:23.672Z,14.30
2022-08-26T04:07:52.586Z,14.20
2022-08-26T04:10:29.025Z,14.30
2022-08-26T04:12:58.801Z,14.20
2022-08-26T04:15:27.983Z,14.20
2022-08-26T04:17:57.739Z,14.20
2022-08-26T04:20:25.777Z,14.20
2022-08-26T04:22:54.037Z,14.20
2022-08-26T04:25:22.500Z,14.20
2022-08-26T04:27:52.381Z,14.20
2022-08-26T04:30:21.235Z,14.20
2022-08-26T04:32:51.189Z,14.20
2022-08-26T04:35:25.857Z,14.20
2022-08-26T04:37:55.437Z,14.20
2022-08-26T04:40:24.072Z,14.20
2022-08-26T04:42:54.080Z,14.20
2022-08-26T04:45:22.837Z,14.20
2022-08-26T04:47:54.699Z,14.20
2022-08-26T04:50:25.743Z,14.20
2022-08-26T04:52:55.350Z,14.20
2022-08-26T04:55:38.208Z,14.30
2022-08-26T04:58:10.360Z,14.30
2022-08-26T05:00:39.053Z,14.40
2022-08-26T05:03:10.511Z,14.40
2022-08-26T05:05:41.399Z,14.50
2022-08-26T05:08:11.327Z,14.60
2022-08-26T05:10:43.561Z,14.60
2022-08-26T05:13:14.273Z,14.70
2022-08-26T05:15:44.248Z,14.80
2022-08-26T05:18:14.902Z,14.80
2022-08-26T05:20:46.489Z,15.00
2022-08-26T05:23:15.868Z,15.10
2022-08-26T05:25:46.985Z,15.10
2022-08-26T05:28:19.075Z,15.20
2022-08-26T05:30:48.012Z,15.30
2022-08-26T05:33:18.179Z,15.40
2022-08-26T05:35:48.060Z,15.50
2022-08-26T05:38:19.788Z,15.60
2022-08-26T05:40:52.560Z,15.70
2022-08-26T05:43:21.951Z,15.70
2022-08-26T05:45:51.465Z,15.90
2022-08-26T05:48:22.574Z,16.00
2022-08-26T05:50:54.429Z,16.10
2022-08-26T05:53:25.917Z,16.20
2022-08-26T05:55:55.652Z,16.30
2022-08-26T05:58:24.727Z,16.40
2022-08-26T06:01:00.805Z,16.50
2022-08-26T06:03:29.728Z,16.50
2022-08-26T06:05:59.172Z,16.60
2022-08-26T06:08:28.027Z,16.70
2022-08-26T06:11:00.140Z,16.80
2022-08-26T06:13:30.360Z,16.90
2022-08-26T06:16:01.250Z,16.90
2022-08-26T06:18:32.730Z,17.00
2022-08-26T06:21:11.801Z,17.10
2022-08-26T06:23:56.623Z,17.20
2022-08-26T06:26:27.599Z,17.30
2022-08-26T06:28:55.651Z,17.40
2022-08-26T06:31:24.483Z,17.50
2022-08-26T06:33:53.890Z,17.60
2022-08-26T06:36:26.549Z,17.70
2022-08-26T06:38:56.724Z,17.80
2022-08-26T06:41:25.710Z,17.90
2022-08-26T06:43:54.064Z,18.00
2022-08-26T06:46:22.931Z,18.00
2022-08-26T06:48:51.118Z,18.00
2022-08-26T06:51:22.337Z,18.00
2022-08-26T06:53:54.641Z,18.10
2022-08-26T06:56:25.069Z,18.30
2022-08-26T06:58:55.907Z,18.30
2022-08-26T07:01:27.474Z,18.40
2022-08-26T07:03:58.285Z,18.50
2022-08-26T07:06:27.659Z,18.60
2022-08-26T07:09:04.171Z,18.70
2022-08-26T07:11:33.400Z,18.80
2022-08-26T07:14:01.883Z,18.90
2022-08-26T07:16:30.777Z,19.10
2022-08-26T07:18:59.051Z,19.10
2022-08-26T07:21:29.514Z,19.30
2022-08-26T07:24:01.438Z,19.30
2022-08-26T07:26:31.349Z,19.40
2022-08-26T07:29:00.843Z,19.60
2022-08-26T07:31:36.074Z,19.60
2022-08-26T07:34:09.299Z,19.70
2022-08-26T07:36:37.843Z,19.70
2022-08-26T07:39:07.783Z,19.90
2022-08-26T07:41:36.521Z,20.00
2022-08-26T07:44:05.995Z,20.10
2022-08-26T07:46:36.580Z,20.30
2022-08-26T07:49:04.832Z,20.40
2022-08-26T07:51:33.229Z,20.60
2022-08-26T07:54:01.305Z,20.80
2022-08-26T07:56:30.741Z,20.90
2022-08-26T07:58:59.428Z,21.10
2022-08-26T08:01:29.632Z,21.30
2022-08-26T08:03:58.927Z,21.50
2022-08-26T08:06:28.356Z,21.70
2022-08-26T08:08:57.074Z,21.80
2022-08-26T08:11:27.203Z,21.90
2022-08-26T08:13:57.034Z,22.20
2022-08-26T08:16:26.265Z,22.40
2022-08-26T08:18:54.520Z,22.60
2022-08-26T08:21:24.474Z,22.80
2022-08-26T08:23:53.814Z,22.90
2022-08-26T08:26:22.432Z,23.10
2022-08-26T08:28:52.189Z,23.30
2022-08-26T08:31:45.005Z,23.60
2022-08-26T08:34:11.625Z,23.70
2022-08-26T08:36:39.792Z,23.90
2022-08-26T08:39:07.981Z,24.10
2022-08-26T08:41:58.988Z,24.40
2022-08-26T08:47:06.890Z,24.80
2022-08-26T08:49:36.072Z,25.10
2022-08-26T08:52:11.848Z,25.30
2022-08-26T08:54:40.001Z,25.50
2022-08-26T08:57:14.205Z,25.70
2022-08-26T08:59:51.999Z,25.80
2022-08-26T09:02:28.374Z,25.90
2022-08-26T09:05:14.930Z,26.20
2022-08-26T09:07:49.294Z,26.40
2022-08-26T09:10:32.125Z,26.60
2022-08-26T09:13:02.457Z,26.80
2022-08-26T09:15:44.071Z,26.90
2022-08-26T09:18:25.770Z,27.10
2022-08-26T09:20:59.045Z,27.30
2022-08-26T09:23:27.746Z,27.50
2022-08-26T09:26:02.081Z,27.60
2022-08-26T09:28:31.991Z,27.80
2022-08-26T09:31:12.084Z,27.90
2022-08-26T09:33:42.721Z,28.20
2022-08-26T09:36:17.254Z,28.40
2022-08-26T09:38:46.255Z,28.60
2022-08-26T09:41:22.473Z,28.70
2022-08-26T09:44:15.615Z,28.90
2022-08-26T09:46:52.316Z,29.20
2022-08-26T09:49:36.230Z,29.30
2022-08-26T09:52:20.760Z,29.40
2022-08-26T09:55:03.572Z,29.50
2022-08-26T09:57:33.936Z,29.40
2022-08-26T10:00:03.110Z,29.40
2022-08-26T10:02:41.441Z,29.50
2022-08-26T10:05:20.233Z,29.70
2022-08-26T10:07:51.789Z,29.80
2022-08-26T10:10:24.514Z,30.00
2022-08-26T10:13:03.109Z,30.00
2022-08-26T10:15:40.474Z,30.10
2022-08-26T10:18:21.059Z,30.10
2022-08-26T10:20:57.818Z,30.30
2022-08-26T10:23:30.282Z,30.50
2022-08-26T10:26:05.580Z,30.50
2022-08-26T10:28:41.200Z,30.70
2022-08-26T10:31:19.404Z,30.70
2022-08-26T10:33:47.980Z,30.80
2022-08-26T10:36:52.348Z,30.90
2022-08-26T10:39:31.035Z,31.10
2022-08-26T10:42:09.541Z,31.10
2022-08-26T10:44:43.833Z,31.10
2022-08-26T10:47:18.515Z,31.40
2022-08-26T10:49:48.232Z,31.60
2022-08-26T10:52:23.300Z,31.80
2022-08-26T10:55:05.062Z,31.90
2022-08-26T10:57:44.859Z,32.20
2022-08-26T11:00:36.481Z,32.20
2022-08-26T11:03:22.462Z,32.20
2022-08-26T11:06:16.992Z,32.20
2022-08-26T11:08:49.150Z,32.00
2022-08-26T11:11:50.138Z,31.90
2022-08-26T11:14:56.149Z,32.00
2022-08-26T11:17:57.009Z,32.20
2022-08-26T11:20:36.678Z,32.50
2022-08-26T11:23:39.305Z,32.70
2022-08-26T11:26:35.524Z,32.80
2022-08-26T11:29:13.099Z,32.60
2022-08-26T11:31:56.744Z,32.70
2022-08-26T11:35:00.468Z,32.90
2022-08-26T11:37:36.197Z,33.00
2022-08-26T11:40:13.306Z,33.20
2022-08-26T11:42:45.276Z,33.40
2022-08-26T11:45:20.364Z,33.50
2022-08-26T11:47:49.498Z,33.70
2022-08-26T11:50:20.633Z,33.90
2022-08-26T11:52:53.628Z,34.00
2022-08-26T11:55:23.237Z,34.00
2022-08-26T11:57:56.693Z,34.20
2022-08-26T12:00:33.287Z,34.40
2022-08-26T12:03:07.594Z,34.70
2022-08-26T12:05:39.499Z,35.00
2022-08-26T12:08:09.885Z,35.20
2022-08-26T12:10:39.141Z,35.30
2022-08-26T12:13:09.933Z,35.40
2022-08-26T12:18:28.783Z,35.80
2022-08-26T12:21:01.254Z,36.00
2022-08-26T12:23:41.082Z,36.00
2022-08-26T12:26:14.131Z,35.80
2022-08-26T12:28:47.656Z,35.40
2022-08-26T12:31:23.897Z,35.10
2022-08-26T12:33:53.092Z,34.60
2022-08-26T12:36:25.618Z,34.30
2022-08-26T12:38:57.602Z,34.00
2022-08-26T12:41:47.418Z,34.00
2022-08-26T12:44:53.150Z,34.40
2022-08-26T12:47:35.140Z,34.90
2022-08-26T12:50:18.042Z,35.30
2022-08-26T12:52:57.285Z,35.50
2022-08-26T12:55:35.524Z,35.70
2022-08-26T12:58:15.003Z,35.70
2022-08-26T13:00:46.510Z,35.00
2022-08-26T13:03:47.807Z,34.30
2022-08-26T13:06:25.811Z,34.30
2022-08-26T13:08:56.171Z,34.70
2022-08-26T13:11:26.943Z,35.10
2022-08-26T13:13:58.890Z,35.40
2022-08-26T13:16:28.697Z,35.70
2022-08-26T13:18:59.194Z,35.90
2022-08-26T13:21:29.345Z,36.20
2022-08-26T13:24:06.134Z,36.30
2022-08-26T13:26:35.092Z,36.60
2022-08-26T13:29:07.226Z,36.90
2022-08-26T13:31:41.226Z,37.10
2022-08-26T13:34:10.686Z,37.30
2022-08-26T13:36:39.101Z,37.60
2022-08-26T13:39:07.820Z,36.90
2022-08-26T13:41:36.219Z,36.10
2022-08-26T13:44:04.678Z,35.30
2022-08-26T13:46:32.926Z,34.50
2022-08-26T13:49:02.976Z,34.20
2022-08-26T13:51:32.656Z,34.60
2022-08-26T13:54:01.166Z,35.20
2022-08-26T13:56:30.408Z,34.80
2022-08-26T13:58:59.400Z,34.30
2022-08-26T14:01:28.364Z,33.90
2022-08-26T14:03:56.784Z,33.70
2022-08-26T14:06:27.497Z,33.30
2022-08-26T14:08:55.616Z,32.90
2022-08-26T14:11:24.872Z,32.80
2022-08-26T14:13:53.055Z,33.40
2022-08-26T14:16:25.373Z,34.00
2022-08-26T14:18:53.979Z,33.70
2022-08-26T14:21:22.213Z,33.20
2022-08-26T14:23:51.657Z,32.80
2022-08-26T14:26:28.514Z,33.20
2022-08-26T14:28:57.753Z,33.70
2022-08-26T14:31:27.066Z,34.10
2022-08-26T14:33:57.352Z,34.60
2022-08-26T14:36:32.582Z,34.30
2022-08-26T14:39:05.502Z,33.90
2022-08-26T14:41:35.351Z,33.40
2022-08-26T14:44:06.381Z,33.00
2022-08-26T14:46:41.101Z,32.60
2022-08-26T14:49:10.769Z,32.20
2022-08-26T14:51:40.854Z,31.90
2022-08-26T14:54:12.611Z,31.50
2022-08-26T14:56:45.796Z,31.10
2022-08-26T14:59:15.031Z,30.70
2022-08-26T15:01:43.492Z,30.40
2022-08-26T15:04:11.765Z,30.20
2022-08-26T15:06:40.563Z,29.90
2022-08-26T15:09:10.717Z,29.70
2022-08-26T15:11:38.962Z,29.50
2022-08-26T15:14:08.176Z,29.60
2022-08-26T15:16:48.205Z,29.70
2022-08-26T15:19:16.543Z,29.80
2022-08-26T15:21:46.915Z,30.00
2022-08-26T15:24:18.553Z,30.00
2022-08-26T15:26:47.433Z,30.10
2022-08-26T15:29:15.941Z,30.10
2022-08-26T15:31:44.111Z,30.20
2022-08-26T15:34:16.465Z,30.20
2022-08-26T15:36:46.292Z,30.10
2022-08-26T15:39:17.094Z,29.90
2022-08-26T15:41:45.387Z,29.60
2022-08-26T15:44:16.123Z,29.40
2022-08-26T15:46:44.609Z,29.20
2022-08-26T15:49:17.553Z,29.00
2022-08-26T15:51:50.279Z,28.90
2022-08-26T15:54:22.534Z,28.90
2022-08-26T15:56:52.169Z,28.80
2022-08-26T15:59:22.245Z,28.70
2022-08-26T16:01:51.049Z,28.70
2022-08-26T16:04:19.271Z,28.50
2022-08-26T16:06:51.385Z,28.40
2022-08-26T16:09:24.222Z,28.30
2022-08-26T16:11:52.837Z,28.30
2022-08-26T16:14:21.359Z,28.20
2022-08-26T16:16:50.893Z,28.10
2022-08-26T16:19:19.080Z,28.10
2022-08-26T16:21:47.971Z,28.00
2022-08-26T16:24:16.130Z,27.90
2022-08-26T16:26:45.870Z,27.80
2022-08-26T16:29:16.373Z,27.70
2022-08-26T16:31:44.666Z,27.60
2022-08-26T16:34:12.733Z,27.50
2022-08-26T16:36:41.924Z,27.50
2022-08-26T16:39:10.460Z,27.30
2022-08-26T16:41:38.607Z,27.20
2022-08-26T16:44:08.870Z,27.00
2022-08-26T16:46:39.628Z,26.90
2022-08-26T16:49:07.801Z,26.70
2022-08-26T16:51:37.779Z,26.60
2022-08-26T16:54:07.302Z,26.40
2022-08-26T16:56:35.810Z,26.30
2022-08-26T16:59:04.130Z,26.20
2022-08-26T17:01:33.749Z,26.10
2022-08-26T17:04:01.900Z,26.00
2022-08-26T17:06:30.126Z,25.90
2022-08-26T17:08:58.284Z,25.80
2022-08-26T17:11:27.857Z,25.60
2022-08-26T17:13:56.877Z,25.50
2022-08-26T17:16:27.081Z,25.40
2022-08-26T17:18:57.466Z,25.30
2022-08-26T17:21:26.868Z,25.20
2022-08-26T17:23:56.239Z,25.00
2022-08-26T17:26:24.430Z,24.90
2022-08-26T17:28:52.647Z,24.70
2022-08-26T17:31:21.466Z,24.60
2022-08-26T17:33:53.465Z,24.50
2022-08-26T17:36:27.826Z,24.40
2022-08-26T17:38:57.841Z,24.20
2022-08-26T17:41:26.308Z,24.10
2022-08-26T17:43:54.498Z,24.00
2022-08-26T17:46:22.694Z,23.90
2022-08-26T17:48:50.808Z,23.80
2022-08-26T17:51:20.171Z,23.70
2022-08-26T17:53:50.483Z,23.50
2022-08-26T17:56:23.774Z,23.40
2022-08-26T17:58:52.756Z,23.30
2022-08-26T18:01:21.097Z,23.20
2022-08-26T18:03:49.393Z,23.10
2022-08-26T18:06:17.882Z,23.00
2022-08-26T18:08:46.311Z,22.90
2022-08-26T18:11:17.665Z,22.70
2022-08-26T18:13:47.499Z,22.60
2022-08-26T18:16:17.385Z,22.50
2022-08-26T18:18:46.423Z,22.40
2022-08-26T18:21:16.748Z,22.30
2022-08-26T18:23:45.392Z,22.20
2022-08-26T18:26:19.406Z,22.10
2022-08-26T18:28:47.672Z,21.90
2022-08-26T18:31:16.305Z,21.80
2022-08-26T18:33:44.883Z,21.70
2022-08-26T18:36:18.440Z,21.60
2022-08-26T18:38:47.219Z,21.60
2022-08-26T18:41:21.489Z,21.50
2022-08-26T18:43:50.441Z,21.40
2022-08-26T18:46:19.893Z,21.30
2022-08-26T18:48:49.090Z,21.30
2022-08-26T18:51:20.931Z,21.20
2022-08-26T18:53:49.089Z,21.10
2022-08-26T18:56:18.632Z,21.00
2022-08-26T18:58:49.193Z,20.90
2022-08-26T19:01:18.481Z,20.80
2022-08-26T19:03:47.125Z,20.80
2022-08-26T19:06:17.639Z,20.70
2022-08-26T19:08:49.860Z,20.60
2022-08-26T19:11:31.567Z,20.50
2022-08-26T19:14:02.988Z,20.40
2022-08-26T19:16:31.622Z,20.30
2022-08-26T19:19:01.359Z,20.30
2022-08-26T19:21:30.218Z,20.20
2022-08-26T19:23:59.387Z,20.10
2022-08-26T19:26:28.511Z,20.10
2022-08-26T19:28:57.623Z,20.10
2022-08-26T19:31:27.286Z,20.00
2022-08-26T19:33:56.608Z,20.00
2022-08-26T19:36:27.218Z,19.90
2022-08-26T19:38:56.846Z,19.90
2022-08-26T19:41:36.602Z,19.90
2022-08-26T19:44:08.420Z,19.90
2022-08-26T19:49:11.823Z,19.80
2022-08-26T19:51:39.939Z,19.80
2022-08-26T19:54:08.036Z,19.80
2022-08-26T19:56:36.531Z,19.70
2022-08-26T19:59:04.776Z,19.70
2022-08-26T20:01:32.913Z,19.70
2022-08-26T20:04:02.764Z,19.60
2022-08-26T20:06:30.896Z,19.60
2022-08-26T20:09:00.604Z,19.60
2022-08-26T20:11:29.331Z,19.60
2022-08-26T20:13:57.469Z,19.60
2022-08-26T20:16:25.590Z,19.60
2022-08-26T20:19:11.354Z,19.60
2022-08-26T20:21:41.286Z,19.60
2022-08-26T20:24:13.829Z,19.70
2022-08-26T20:26:43.790Z,19.70
2022-08-26T20:29:13.677Z,19.60
2022-08-26T20:31:44.011Z,19.70
2022-08-26T20:34:13.228Z,19.70
2022-08-26T20:36:43.602Z,19.70
2022-08-26T20:39:11.793Z,19.70
2022-08-26T20:41:40.656Z,19.60
2022-08-26T20:44:09.341Z,19.60
2022-08-26T20:46:37.478Z,19.60
2022-08-26T20:49:07.468Z,19.60
2022-08-26T20:51:37.249Z,19.50
2022-08-26T20:54:07.790Z,19.50
2022-08-26T20:56:36.546Z,19.50
2022-08-26T20:59:06.765Z,19.50
2022-08-26T21:01:37.841Z,19.50
2022-08-26T21:04:13.828Z,19.40
2022-08-26T21:06:52.368Z,19.40
2022-08-26T21:09:23.478Z,19.30
2022-08-26T21:11:52.260Z,19.30
2022-08-26T21:14:23.129Z,19.20
2022-08-26T21:16:54.212Z,19.20
2022-08-26T21:19:22.729Z,19.10
2022-08-26T21:21:50.783Z,19.10
2022-08-26T21:24:19.199Z,19.00
2022-08-26T21:26:48.903Z,19.00
2022-08-26T21:29:17.077Z,18.90
2022-08-26T21:31:46.792Z,18.90
2022-08-26T21:34:15.815Z,18.80
2022-08-26T21:36:43.853Z,18.80
2022-08-26T21:39:12.568Z,18.80
2022-08-26T21:41:41.237Z,18.70
2022-08-26T21:44:11.496Z,18.60
2022-08-26T21:46:39.826Z,18.50
2022-08-26T21:49:11.588Z,18.50
2022-08-26T21:51:46.473Z,18.40
2022-08-26T21:54:15.406Z,18.40
2022-08-26T21:56:46.548Z,18.30
2022-08-26T21:59:18.356Z,18.20
2022-08-26T22:01:47.198Z,18.20
2022-08-26T22:04:15.809Z,18.20
2022-08-26T22:06:46.148Z,18.20
2022-08-26T22:09:16.469Z,18.10
2022-08-26T22:11:46.265Z,18.10
2022-08-26T22:14:17.641Z,18.10
2022-08-26T22:16:50.264Z,18.10
2022-08-26T22:19:19.856Z,18.00
2022-08-26T22:21:49.372Z,18.00
2022-08-26T22:24:17.363Z,18.00
2022-08-26T22:26:45.733Z,18.00
2022-08-26T22:29:15.529Z,18.00
2022-08-26T22:31:43.855Z,18.00
2022-08-26T22:34:15.624Z,18.00
2022-08-26T22:36:46.345Z,18.00
2022-08-26T22:39:15.740Z,17.90
2022-08-26T22:41:43.984Z,17.90
2022-08-26T22:44:13.006Z,17.90
2022-08-26T22:46:43.763Z,17.90
2022-08-26T22:49:15.738Z,17.90
2022-08-26T22:51:44.325Z,17.80
2022-08-26T22:54:12.682Z,17.80
2022-08-26T22:56:41.284Z,17.70
2022-08-26T22:59:10.052Z,17.70
2022-08-26T23:01:40.083Z,17.70
2022-08-26T23:04:10.936Z,17.60
2022-08-26T23:06:42.978Z,17.60
2022-08-26T23:09:12.172Z,17.50
2022-08-26T23:11:43.839Z,17.50
2022-08-26T23:14:12.472Z,17.50
2022-08-26T23:16:42.261Z,17.50
2022-08-26T23:19:13.287Z,17.40
2022-08-26T23:21:41.959Z,17.40
2022-08-26T23:24:10.739Z,17.30
2022-08-26T23:26:41.960Z,17.30
2022-08-26T23:29:11.855Z,17.30
2022-08-26T23:31:41.742Z,17.30
2022-08-26T23:34:29.385Z,17.30
2022-08-26T23:36:58.971Z,17.30
2022-08-26T23:39:28.412Z,17.30
2022-08-26T23:41:56.885Z,17.30
2022-08-26T23:44:26.674Z,17.30
2022-08-26T23:46:55.038Z,17.30
2022-08-26T23:49:25.600Z,17.30
2022-08-26T23:52:11.460Z,17.30
2022-08-26T23:54:40.118Z,17.40
2022-08-26T23:57:09.282Z,17.40
2022-08-26T23:59:38.701Z,17.40
